createdAt,value
2018-03-31T00:00:51.791Z,978.0
2018-03-31T00:01:52.442Z,978.0
2018-03-31T00:02:53.094Z,978.0
2018-03-31T00:03:53.747Z,978.0
2018-03-31T00:04:54.398Z,978.0
2018-03-31T00:05:55.048Z,977.9
2018-03-31T00:06:55.702Z,977.9
2018-03-31T00:07:56.356Z,977.9
2018-03-31T00:08:57.008Z,978.0
2018-03-31T00:09:57.660Z,978.0
2018-03-31T00:10:58.311Z,978.0
2018-03-31T00:11:58.965Z,977.9
2018-03-31T00:12:59.616Z,977.9
2018-03-31T00:14:00.270Z,977.9
2018-03-31T00:15:00.920Z,977.9
2018-03-31T00:16:01.574Z,977.9
2018-03-31T00:17:02.225Z,977.9
2018-03-31T00:18:02.881Z,977.9
2018-03-31T00:19:03.529Z,977.9
2018-03-31T00:20:04.183Z,977.9
2018-03-31T00:21:04.834Z,977.9
2018-03-31T00:22:05.488Z,977.9
2018-03-31T00:23:06.141Z,977.9
2018-03-31T00:24:06.793Z,977.9
2018-03-31T00:25:07.442Z,977.9
2018-03-31T00:26:08.093Z,977.9
2018-03-31T00:27:08.747Z,977.8
2018-03-31T00:28:09.397Z,977.8
2018-03-31T00:29:10.050Z,977.8
2018-03-31T00:30:10.702Z,977.8
2018-03-31T00:31:11.353Z,977.8
2018-03-31T00:32:12.004Z,977.8
2018-03-31T00:33:12.657Z,977.7
2018-03-31T00:34:13.309Z,977.7
2018-03-31T00:35:13.962Z,977.7
2018-03-31T00:36:14.615Z,977.7
2018-03-31T00:37:15.263Z,977.7
2018-03-31T00:38:15.917Z,977.6
2018-03-31T00:39:16.568Z,977.6
2018-03-31T00:40:17.220Z,977.6
2018-03-31T00:41:17.872Z,977.6
2018-03-31T00:42:18.561Z,977.6
2018-03-31T00:43:19.211Z,977.6
2018-03-31T00:44:19.862Z,977.6
2018-03-31T00:45:20.515Z,977.6
2018-03-31T00:46:21.168Z,977.6
2018-03-31T00:47:21.825Z,977.5
2018-03-31T00:48:22.472Z,977.6
2018-03-31T00:49:23.125Z,977.6
2018-03-31T00:50:23.779Z,977.6
2018-03-31T00:51:24.540Z,977.5
2018-03-31T00:52:25.122Z,977.5
2018-03-31T00:53:25.776Z,977.5
2018-03-31T00:54:26.427Z,977.5
2018-03-31T00:55:27.083Z,977.6
2018-03-31T00:56:27.730Z,977.5
2018-03-31T00:57:28.384Z,977.5
2018-03-31T00:58:29.034Z,977.6
2018-03-31T00:59:29.686Z,977.5
2018-03-31T01:00:30.337Z,977.5
2018-03-31T01:01:30.988Z,977.5
2018-03-31T01:02:31.640Z,977.5
2018-03-31T01:03:32.336Z,977.5
2018-03-31T01:04:32.988Z,977.5
2018-03-31T01:05:33.639Z,977.5
2018-03-31T01:06:34.295Z,977.5
2018-03-31T01:07:34.942Z,977.5
2018-03-31T01:08:35.594Z,977.5
2018-03-31T01:09:36.250Z,977.5
2018-03-31T01:10:36.895Z,977.5
2018-03-31T01:11:37.585Z,977.5
2018-03-31T01:12:38.237Z,977.6
2018-03-31T01:13:38.888Z,977.5
2018-03-31T01:14:39.579Z,977.5
2018-03-31T01:15:40.230Z,977.5
2018-03-31T01:16:40.881Z,977.5
2018-03-31T01:17:41.532Z,977.5
2018-03-31T01:18:42.187Z,977.5
2018-03-31T01:19:42.836Z,977.5
2018-03-31T01:20:43.490Z,977.4
2018-03-31T01:21:44.142Z,977.4
2018-03-31T01:22:44.796Z,977.4
2018-03-31T01:23:45.447Z,977.4
2018-03-31T01:24:46.100Z,977.4
2018-03-31T01:25:46.757Z,977.4
2018-03-31T01:26:47.411Z,977.3
2018-03-31T01:27:48.094Z,977.3
2018-03-31T01:28:48.747Z,977.4
2018-03-31T01:29:49.399Z,977.3
2018-03-31T01:30:50.054Z,977.3
2018-03-31T01:31:50.702Z,977.4
2018-03-31T01:32:51.354Z,977.3
2018-03-31T01:33:52.044Z,977.3
2018-03-31T01:34:52.696Z,977.4
2018-03-31T01:35:53.349Z,977.4
2018-03-31T01:36:54.002Z,977.4
2018-03-31T01:37:54.654Z,977.4
2018-03-31T01:38:55.308Z,977.4
2018-03-31T01:39:55.959Z,977.3
2018-03-31T01:40:56.611Z,977.4
2018-03-31T01:41:57.263Z,977.4
2018-03-31T01:42:57.950Z,977.3
2018-03-31T01:43:58.602Z,977.3
2018-03-31T01:44:59.257Z,977.3
2018-03-31T01:45:59.909Z,977.3
2018-03-31T01:47:00.560Z,977.3
2018-03-31T01:48:01.212Z,977.3
2018-03-31T01:49:01.866Z,977.3
2018-03-31T01:50:02.520Z,977.3
2018-03-31T01:51:03.208Z,977.3
2018-03-31T01:52:03.861Z,977.3
2018-03-31T01:53:04.514Z,977.3
2018-03-31T01:54:05.166Z,977.2
2018-03-31T01:55:05.819Z,977.3
2018-03-31T01:56:06.473Z,977.2
2018-03-31T01:57:07.124Z,977.2
2018-03-31T01:58:07.775Z,977.2
2018-03-31T01:59:08.464Z,977.2
2018-03-31T02:00:09.119Z,977.2
2018-03-31T02:01:09.770Z,977.2
2018-03-31T02:02:10.423Z,977.2
2018-03-31T02:03:11.075Z,977.2
2018-03-31T02:04:11.728Z,977.2
2018-03-31T02:05:12.379Z,977.2
2018-03-31T02:06:13.031Z,977.2
2018-03-31T02:07:13.682Z,977.1
2018-03-31T02:08:14.335Z,977.2
2018-03-31T02:09:14.994Z,977.1
2018-03-31T02:10:15.639Z,977.1
2018-03-31T02:11:16.292Z,977.0
2018-03-31T02:12:16.944Z,977.1
2018-03-31T02:13:17.597Z,977.1
2018-03-31T02:14:18.251Z,977.0
2018-03-31T02:15:18.903Z,977.0
2018-03-31T02:16:19.557Z,977.0
2018-03-31T02:17:20.268Z,977.0
2018-03-31T02:18:20.861Z,976.9
2018-03-31T02:19:21.514Z,976.9
2018-03-31T02:20:22.203Z,976.9
2018-03-31T02:21:22.856Z,976.9
2018-03-31T02:22:23.507Z,976.9
2018-03-31T02:23:24.161Z,977.0
2018-03-31T02:24:24.813Z,977.0
2018-03-31T02:25:25.466Z,976.9
2018-03-31T02:26:26.117Z,976.9
2018-03-31T02:27:26.772Z,976.9
2018-03-31T02:28:27.459Z,976.9
2018-03-31T02:29:28.113Z,976.9
2018-03-31T02:30:28.765Z,976.9
2018-03-31T02:31:29.419Z,976.9
2018-03-31T02:32:30.070Z,976.8
2018-03-31T02:33:30.722Z,976.8
2018-03-31T02:34:31.375Z,976.9
2018-03-31T02:35:32.030Z,976.8
2018-03-31T02:36:32.680Z,976.9
2018-03-31T02:37:33.334Z,976.9
2018-03-31T02:38:33.985Z,976.9
2018-03-31T02:39:34.638Z,976.9
2018-03-31T02:40:35.293Z,976.9
2018-03-31T02:41:35.947Z,976.9
2018-03-31T02:42:36.607Z,976.9
2018-03-31T02:43:37.251Z,976.9
2018-03-31T02:44:37.901Z,976.9
2018-03-31T02:45:38.554Z,977.0
2018-03-31T02:46:39.206Z,977.0
2018-03-31T02:47:39.860Z,977.0
2018-03-31T02:48:40.510Z,977.0
2018-03-31T02:49:41.162Z,977.1
2018-03-31T02:50:41.834Z,977.1
2018-03-31T02:51:42.468Z,977.1
2018-03-31T02:52:43.123Z,977.1
2018-03-31T02:53:43.790Z,977.1
2018-03-31T02:54:44.424Z,977.1
2018-03-31T02:55:45.077Z,977.0
2018-03-31T02:56:45.728Z,977.0
2018-03-31T02:57:46.382Z,977.0
2018-03-31T02:58:47.039Z,977.0
2018-03-31T02:59:47.686Z,977.1
2018-03-31T03:00:48.336Z,977.0
2018-03-31T03:01:48.989Z,977.1
2018-03-31T03:02:49.642Z,977.0
2018-03-31T03:03:50.293Z,977.0
2018-03-31T03:04:50.945Z,977.0
2018-03-31T03:05:51.599Z,977.1
2018-03-31T03:06:52.249Z,977.1
2018-03-31T03:07:52.908Z,977.1
2018-03-31T03:08:53.555Z,977.1
2018-03-31T03:09:54.208Z,977.1
2018-03-31T03:10:54.859Z,977.1
2018-03-31T03:11:55.515Z,977.0
2018-03-31T03:12:56.202Z,977.0
2018-03-31T03:13:56.855Z,977.0
2018-03-31T03:14:57.506Z,977.0
2018-03-31T03:15:58.159Z,977.0
2018-03-31T03:16:58.810Z,977.0
2018-03-31T03:17:59.461Z,977.0
2018-03-31T03:19:00.114Z,977.0
2018-03-31T03:20:00.768Z,977.0
2018-03-31T03:21:01.423Z,977.0
2018-03-31T03:22:02.119Z,977.0
2018-03-31T03:23:02.763Z,977.0
2018-03-31T03:24:03.415Z,977.0
2018-03-31T03:25:04.067Z,977.0
2018-03-31T03:26:04.769Z,977.1
2018-03-31T03:27:05.421Z,977.0
2018-03-31T03:28:06.073Z,977.0
2018-03-31T03:29:06.728Z,977.0
2018-03-31T03:30:07.415Z,976.9
2018-03-31T03:31:08.067Z,977.0
2018-03-31T03:32:08.719Z,977.0
2018-03-31T03:33:09.371Z,976.9
2018-03-31T03:34:10.059Z,977.0
2018-03-31T03:35:10.712Z,976.9
2018-03-31T03:36:11.366Z,976.9
2018-03-31T03:37:12.016Z,976.9
2018-03-31T03:38:12.667Z,976.9
2018-03-31T03:39:13.317Z,976.9
2018-03-31T03:40:13.970Z,976.8
2018-03-31T03:41:14.621Z,976.8
2018-03-31T03:42:15.273Z,976.8
2018-03-31T03:43:15.925Z,976.8
2018-03-31T03:44:16.580Z,976.8
2018-03-31T03:45:17.229Z,976.8
2018-03-31T03:46:17.881Z,976.8
2018-03-31T03:47:18.538Z,976.8
2018-03-31T03:48:19.222Z,976.8
2018-03-31T03:49:19.874Z,976.8
2018-03-31T03:50:20.560Z,976.8
2018-03-31T03:51:21.264Z,976.8
2018-03-31T03:52:21.913Z,976.8
2018-03-31T03:53:22.569Z,976.7
2018-03-31T03:54:23.215Z,976.7
2018-03-31T03:55:23.868Z,976.7
2018-03-31T03:56:24.520Z,976.7
2018-03-31T03:57:25.170Z,976.6
2018-03-31T03:58:25.823Z,976.7
2018-03-31T03:59:26.474Z,976.6
2018-03-31T04:00:27.126Z,976.7
2018-03-31T04:01:27.777Z,976.6
2018-03-31T04:02:28.429Z,976.7
2018-03-31T04:03:29.080Z,976.7
2018-03-31T04:04:29.731Z,976.6
2018-03-31T04:05:30.383Z,976.6
2018-03-31T04:06:31.034Z,976.7
2018-03-31T04:07:31.686Z,976.6
2018-03-31T04:08:32.335Z,976.6
2018-03-31T04:09:32.987Z,976.6
2018-03-31T04:10:33.638Z,976.6
2018-03-31T04:11:34.291Z,976.6
2018-03-31T04:12:34.946Z,976.6
2018-03-31T04:13:35.593Z,976.6
2018-03-31T04:14:36.246Z,976.6
2018-03-31T04:15:36.896Z,976.6
2018-03-31T04:16:37.548Z,976.6
2018-03-31T04:17:38.198Z,976.6
2018-03-31T04:18:38.851Z,976.6
2018-03-31T04:19:39.502Z,976.6
2018-03-31T04:20:40.152Z,976.6
2018-03-31T04:21:40.803Z,976.5
2018-03-31T04:22:41.455Z,976.5
2018-03-31T04:23:42.106Z,976.6
2018-03-31T04:24:42.758Z,976.6
2018-03-31T04:25:43.409Z,976.6
2018-03-31T04:26:44.061Z,976.5
2018-03-31T04:27:44.714Z,976.5
2018-03-31T04:28:45.364Z,976.6
2018-03-31T04:29:46.015Z,976.6
2018-03-31T04:30:46.667Z,976.6
2018-03-31T04:31:47.318Z,976.5
2018-03-31T04:32:47.971Z,976.5
2018-03-31T04:33:48.623Z,976.6
2018-03-31T04:34:49.275Z,976.5
2018-03-31T04:35:49.926Z,976.5
2018-03-31T04:36:50.578Z,976.5
2018-03-31T04:37:51.229Z,976.5
2018-03-31T04:38:51.882Z,976.5
2018-03-31T04:39:52.531Z,976.5
2018-03-31T04:40:53.189Z,976.5
2018-03-31T04:41:53.834Z,976.5
2018-03-31T04:42:54.521Z,976.5
2018-03-31T04:43:55.174Z,976.5
2018-03-31T04:44:55.826Z,976.6
2018-03-31T04:45:56.477Z,976.6
2018-03-31T04:46:57.127Z,976.6
2018-03-31T04:47:57.780Z,976.6
2018-03-31T04:48:58.430Z,976.7
2018-03-31T04:49:59.086Z,976.7
2018-03-31T04:50:59.733Z,976.7
2018-03-31T04:52:00.388Z,976.7
2018-03-31T04:53:01.074Z,976.7
2018-03-31T04:54:01.726Z,976.7
2018-03-31T04:55:02.422Z,976.7
2018-03-31T04:56:03.074Z,976.7
2018-03-31T04:57:03.718Z,976.7
2018-03-31T04:58:04.409Z,976.7
2018-03-31T04:59:05.023Z,976.7
2018-03-31T05:00:05.675Z,976.7
2018-03-31T05:01:06.327Z,976.7
2018-03-31T05:02:06.979Z,976.7
2018-03-31T05:03:07.629Z,976.7
2018-03-31T05:04:08.284Z,976.7
2018-03-31T05:05:08.936Z,976.7
2018-03-31T05:06:09.588Z,976.6
2018-03-31T05:07:10.241Z,976.7
2018-03-31T05:08:10.894Z,976.7
2018-03-31T05:09:11.545Z,976.6
2018-03-31T05:10:12.197Z,976.7
2018-03-31T05:11:12.852Z,976.7
2018-03-31T05:12:13.542Z,976.7
2018-03-31T05:13:14.229Z,976.7
2018-03-31T05:14:14.883Z,976.7
2018-03-31T05:15:15.536Z,976.8
2018-03-31T05:16:16.190Z,976.8
2018-03-31T05:17:16.843Z,976.8
2018-03-31T05:18:17.493Z,976.8
2018-03-31T05:19:18.146Z,976.7
2018-03-31T05:20:18.800Z,976.7
2018-03-31T05:21:19.454Z,976.7
2018-03-31T05:22:20.107Z,976.7
2018-03-31T05:23:20.760Z,976.7
2018-03-31T05:24:21.414Z,976.7
2018-03-31T05:25:22.071Z,976.7
2018-03-31T05:26:22.793Z,976.7
2018-03-31T05:27:23.412Z,976.7
2018-03-31T05:28:24.066Z,976.8
2018-03-31T05:29:24.723Z,976.8
2018-03-31T05:30:25.373Z,976.8
2018-03-31T05:31:26.026Z,976.8
2018-03-31T05:32:26.682Z,976.7
2018-03-31T05:33:27.369Z,976.8
2018-03-31T05:34:28.024Z,976.8
2018-03-31T05:35:28.676Z,976.7
2018-03-31T05:36:29.329Z,976.8
2018-03-31T05:37:29.986Z,976.7
2018-03-31T05:38:30.677Z,976.8
2018-03-31T05:39:31.331Z,976.7
2018-03-31T05:40:31.984Z,976.8
2018-03-31T05:41:32.638Z,976.8
2018-03-31T05:42:33.292Z,976.8
2018-03-31T05:43:33.945Z,976.8
2018-03-31T05:44:34.602Z,976.7
2018-03-31T05:45:35.258Z,976.8
2018-03-31T05:46:35.916Z,976.8
2018-03-31T05:47:36.567Z,976.7
2018-03-31T05:48:37.222Z,976.8
2018-03-31T05:49:37.941Z,976.7
2018-03-31T05:50:38.533Z,976.7
2018-03-31T05:51:39.188Z,976.7
2018-03-31T05:52:39.842Z,976.7
2018-03-31T05:53:40.495Z,976.7
2018-03-31T05:54:41.151Z,976.7
2018-03-31T05:55:41.806Z,976.7
2018-03-31T05:56:42.460Z,976.7
2018-03-31T05:57:43.121Z,976.7
2018-03-31T05:58:43.771Z,976.7
2018-03-31T05:59:44.424Z,976.7
2018-03-31T06:00:45.080Z,976.7
2018-03-31T06:01:45.734Z,976.7
2018-03-31T06:02:46.390Z,976.7
2018-03-31T06:03:47.047Z,976.7
2018-03-31T06:04:47.701Z,976.8
2018-03-31T06:05:48.354Z,976.7
2018-03-31T06:06:49.009Z,976.7
2018-03-31T06:07:49.662Z,976.7
2018-03-31T06:08:50.319Z,976.7
2018-03-31T06:09:50.974Z,976.7
2018-03-31T06:10:51.628Z,976.7
2018-03-31T06:11:52.284Z,976.7
2018-03-31T06:12:52.937Z,976.7
2018-03-31T06:13:53.592Z,976.7
2018-03-31T06:14:54.248Z,976.7
2018-03-31T06:15:54.902Z,976.8
2018-03-31T06:16:55.555Z,976.8
2018-03-31T06:17:56.210Z,976.8
2018-03-31T06:18:56.865Z,976.8
2018-03-31T06:19:57.520Z,976.8
2018-03-31T06:20:58.175Z,976.8
2018-03-31T06:21:58.829Z,976.9
2018-03-31T06:22:59.483Z,976.8
2018-03-31T06:24:00.138Z,976.8
2018-03-31T06:25:00.795Z,976.9
2018-03-31T06:26:01.453Z,976.8
2018-03-31T06:27:02.144Z,976.9
2018-03-31T06:28:02.796Z,976.9
2018-03-31T06:29:03.451Z,976.9
2018-03-31T06:30:04.106Z,976.8
2018-03-31T06:31:04.762Z,976.8
2018-03-31T06:32:05.417Z,976.8
2018-03-31T06:33:06.071Z,976.8
2018-03-31T06:34:06.725Z,976.8
2018-03-31T06:35:07.417Z,976.8
2018-03-31T06:36:08.084Z,976.8
2018-03-31T06:37:08.768Z,976.8
2018-03-31T06:38:09.419Z,976.9
2018-03-31T06:39:10.074Z,976.9
2018-03-31T06:40:10.729Z,976.9
2018-03-31T06:41:11.388Z,976.9
2018-03-31T06:42:12.041Z,976.9
2018-03-31T06:43:12.695Z,976.9
2018-03-31T06:44:13.349Z,977.0
2018-03-31T06:45:14.006Z,977.0
2018-03-31T06:46:14.697Z,976.9
2018-03-31T06:47:15.352Z,976.9
2018-03-31T06:48:16.008Z,976.9
2018-03-31T06:49:16.662Z,976.9
2018-03-31T06:50:17.318Z,976.9
2018-03-31T06:51:17.975Z,976.9
2018-03-31T06:52:18.631Z,976.9
2018-03-31T06:53:19.288Z,976.9
2018-03-31T06:54:19.945Z,976.9
2018-03-31T06:55:20.600Z,977.0
2018-03-31T06:56:21.254Z,977.0
2018-03-31T06:57:21.947Z,977.1
2018-03-31T06:58:22.612Z,977.1
2018-03-31T06:59:23.259Z,977.0
2018-03-31T07:00:23.912Z,977.1
2018-03-31T07:01:24.572Z,977.0
2018-03-31T07:02:25.224Z,977.0
2018-03-31T07:03:25.876Z,977.0
2018-03-31T07:04:26.531Z,976.9
2018-03-31T07:05:27.187Z,976.9
2018-03-31T07:06:27.843Z,976.8
2018-03-31T07:07:28.535Z,976.8
2018-03-31T07:08:29.187Z,976.8
2018-03-31T07:09:29.844Z,976.9
2018-03-31T07:10:30.509Z,976.9
2018-03-31T07:11:31.155Z,976.8
2018-03-31T07:12:31.809Z,976.8
2018-03-31T07:13:32.466Z,976.8
2018-03-31T07:14:33.122Z,976.8
2018-03-31T07:15:33.847Z,976.8
2018-03-31T07:16:34.472Z,976.9
2018-03-31T07:17:35.127Z,976.9
2018-03-31T07:18:35.782Z,976.9
2018-03-31T07:19:36.439Z,977.0
2018-03-31T07:20:37.094Z,977.0
2018-03-31T07:21:37.753Z,976.9
2018-03-31T07:22:38.411Z,976.9
2018-03-31T07:23:39.066Z,976.9
2018-03-31T07:24:39.764Z,976.9
2018-03-31T07:25:40.379Z,976.9
2018-03-31T07:26:41.071Z,977.0
2018-03-31T07:27:41.727Z,977.0
2018-03-31T07:28:42.395Z,977.0
2018-03-31T07:29:43.042Z,977.0
2018-03-31T07:30:43.698Z,977.0
2018-03-31T07:31:44.353Z,977.0
2018-03-31T07:32:45.010Z,977.0
2018-03-31T07:33:45.666Z,977.0
2018-03-31T07:34:46.323Z,977.0
2018-03-31T07:35:46.980Z,977.0
2018-03-31T07:36:47.636Z,977.0
2018-03-31T07:37:48.292Z,977.0
2018-03-31T07:38:48.947Z,977.0
2018-03-31T07:39:49.604Z,977.0
2018-03-31T07:40:50.259Z,977.0
2018-03-31T07:41:50.920Z,977.0
2018-03-31T07:42:51.572Z,977.0
2018-03-31T07:43:52.228Z,977.1
2018-03-31T07:44:52.883Z,977.0
2018-03-31T07:45:53.540Z,977.1
2018-03-31T07:46:54.198Z,977.1
2018-03-31T07:47:54.853Z,977.0
2018-03-31T07:48:55.511Z,977.0
2018-03-31T07:49:56.168Z,977.0
2018-03-31T07:50:56.824Z,977.0
2018-03-31T07:51:57.482Z,977.0
2018-03-31T07:52:58.137Z,977.0
2018-03-31T07:53:58.792Z,977.0
2018-03-31T07:54:59.449Z,977.0
2018-03-31T07:56:00.108Z,976.9
2018-03-31T07:57:00.766Z,976.9
2018-03-31T07:58:01.422Z,976.9
2018-03-31T07:59:02.079Z,976.9
2018-03-31T08:00:02.773Z,976.9
2018-03-31T08:01:03.432Z,976.9
2018-03-31T08:02:04.127Z,976.9
2018-03-31T08:03:04.783Z,976.9
2018-03-31T08:04:05.440Z,977.0
2018-03-31T08:05:06.094Z,977.0
2018-03-31T08:06:06.751Z,976.9
2018-03-31T08:07:07.406Z,976.9
2018-03-31T08:08:08.062Z,977.0
2018-03-31T08:09:08.719Z,977.0
2018-03-31T08:10:09.374Z,977.0
2018-03-31T08:11:10.029Z,977.0
2018-03-31T08:12:10.684Z,977.0
2018-03-31T08:13:11.340Z,977.0
2018-03-31T08:14:11.995Z,977.0
2018-03-31T08:15:12.651Z,977.0
2018-03-31T08:16:13.308Z,977.0
2018-03-31T08:17:13.961Z,977.0
2018-03-31T08:18:14.618Z,977.0
2018-03-31T08:19:15.276Z,977.0
2018-03-31T08:20:15.929Z,977.0
2018-03-31T08:21:16.589Z,977.0
2018-03-31T08:22:17.242Z,977.1
2018-03-31T08:23:17.895Z,977.0
2018-03-31T08:24:18.555Z,977.1
2018-03-31T08:25:19.207Z,977.0
2018-03-31T08:26:19.865Z,977.0
2018-03-31T08:27:20.519Z,977.1
2018-03-31T08:28:21.174Z,977.0
2018-03-31T08:29:21.829Z,977.1
2018-03-31T08:30:22.512Z,977.1
2018-03-31T08:31:23.140Z,977.1
2018-03-31T08:32:23.796Z,977.1
2018-03-31T08:33:24.490Z,977.1
2018-03-31T08:34:25.145Z,977.1
2018-03-31T08:35:25.801Z,977.0
2018-03-31T08:36:26.456Z,977.0
2018-03-31T08:37:27.111Z,977.0
2018-03-31T08:38:27.768Z,977.0
2018-03-31T08:39:28.424Z,977.0
2018-03-31T08:40:29.082Z,977.1
2018-03-31T08:41:29.738Z,977.1
2018-03-31T08:42:30.400Z,977.1
2018-03-31T08:43:31.050Z,977.1
2018-03-31T08:44:31.707Z,977.1
2018-03-31T08:45:32.364Z,977.1
2018-03-31T08:46:33.017Z,977.1
2018-03-31T08:47:33.676Z,977.1
2018-03-31T08:48:34.336Z,977.1
2018-03-31T08:49:35.023Z,977.2
2018-03-31T08:50:35.683Z,977.2
2018-03-31T08:51:36.338Z,977.2
2018-03-31T08:52:36.993Z,977.2
2018-03-31T08:53:37.649Z,977.3
2018-03-31T08:54:38.304Z,977.3
2018-03-31T08:55:38.961Z,977.3
2018-03-31T08:56:39.621Z,977.3
2018-03-31T08:57:40.311Z,977.3
2018-03-31T08:58:40.967Z,977.3
2018-03-31T08:59:41.625Z,977.3
2018-03-31T09:00:42.316Z,977.3
2018-03-31T09:01:43.009Z,977.3
2018-03-31T09:02:43.665Z,977.3
2018-03-31T09:03:44.321Z,977.4
2018-03-31T09:04:44.977Z,977.3
2018-03-31T09:05:45.634Z,977.3
2018-03-31T09:06:46.291Z,977.3
2018-03-31T09:07:46.945Z,977.4
2018-03-31T09:08:47.602Z,977.3
2018-03-31T09:09:48.258Z,977.3
2018-03-31T09:10:48.914Z,977.3
2018-03-31T09:11:49.569Z,977.3
2018-03-31T09:12:50.228Z,977.3
2018-03-31T09:13:50.921Z,977.3
2018-03-31T09:14:51.578Z,977.3
2018-03-31T09:15:52.236Z,977.3
2018-03-31T09:16:52.895Z,977.3
2018-03-31T09:17:53.552Z,977.3
2018-03-31T09:18:54.212Z,977.3
2018-03-31T09:19:54.869Z,977.3
2018-03-31T09:20:55.526Z,977.3
2018-03-31T09:21:56.191Z,977.3
2018-03-31T09:22:56.841Z,977.3
2018-03-31T09:23:57.499Z,977.2
2018-03-31T09:24:58.156Z,977.2
2018-03-31T09:25:58.821Z,977.2
2018-03-31T09:26:59.475Z,977.2
2018-03-31T09:28:00.132Z,977.3
2018-03-31T09:29:00.790Z,977.2
2018-03-31T09:30:01.449Z,977.3
2018-03-31T09:31:02.110Z,977.2
2018-03-31T09:32:02.763Z,977.2
2018-03-31T09:33:03.423Z,977.2
2018-03-31T09:34:04.082Z,977.2
2018-03-31T09:35:04.742Z,977.2
2018-03-31T09:36:05.400Z,977.2
2018-03-31T09:37:06.058Z,977.2
2018-03-31T09:38:06.715Z,977.2
2018-03-31T09:39:07.376Z,977.3
2018-03-31T09:40:08.030Z,977.3
2018-03-31T09:41:08.688Z,977.3
2018-03-31T09:42:09.349Z,977.3
2018-03-31T09:43:10.003Z,977.3
2018-03-31T09:44:10.660Z,977.3
2018-03-31T09:45:11.319Z,977.3
2018-03-31T09:46:11.977Z,977.3
2018-03-31T09:47:12.635Z,977.3
2018-03-31T09:48:13.293Z,977.2
2018-03-31T09:49:13.989Z,977.2
2018-03-31T09:50:14.646Z,977.2
2018-03-31T09:51:15.305Z,977.2
2018-03-31T09:52:15.962Z,977.2
2018-03-31T09:53:16.618Z,977.2
2018-03-31T09:54:17.278Z,977.2
2018-03-31T09:55:17.939Z,977.2
2018-03-31T09:56:18.596Z,977.2
2018-03-31T09:57:19.291Z,977.3
2018-03-31T09:58:19.950Z,977.3
2018-03-31T09:59:20.608Z,977.3
2018-03-31T10:00:21.267Z,977.3
2018-03-31T10:01:21.926Z,977.3
2018-03-31T10:02:22.586Z,977.3
2018-03-31T10:03:23.243Z,977.3
2018-03-31T10:04:23.901Z,977.3
2018-03-31T10:05:24.561Z,977.3
2018-03-31T10:06:25.219Z,977.2
2018-03-31T10:07:25.878Z,977.3
2018-03-31T10:08:26.536Z,977.3
2018-03-31T10:09:27.197Z,977.3
2018-03-31T10:10:27.906Z,977.3
2018-03-31T10:11:28.566Z,977.2
2018-03-31T10:12:29.261Z,977.2
2018-03-31T10:13:29.881Z,977.3
2018-03-31T10:14:30.540Z,977.2
2018-03-31T10:15:31.255Z,977.3
2018-03-31T10:16:31.908Z,977.3
2018-03-31T10:17:32.566Z,977.3
2018-03-31T10:18:33.225Z,977.3
2018-03-31T10:19:33.885Z,977.3
2018-03-31T10:20:34.592Z,977.3
2018-03-31T10:21:35.256Z,977.3
2018-03-31T10:22:35.941Z,977.3
2018-03-31T10:23:36.567Z,977.3
2018-03-31T10:24:37.226Z,977.3
2018-03-31T10:25:37.883Z,977.3
2018-03-31T10:26:38.542Z,977.3
2018-03-31T10:27:39.202Z,977.3
2018-03-31T10:28:39.860Z,977.3
2018-03-31T10:29:40.519Z,977.3
2018-03-31T10:30:41.181Z,977.3
2018-03-31T10:31:41.836Z,977.3
2018-03-31T10:32:42.494Z,977.3
2018-03-31T10:33:43.152Z,977.3
2018-03-31T10:34:43.812Z,977.3
2018-03-31T10:35:44.470Z,977.3
2018-03-31T10:36:45.128Z,977.3
2018-03-31T10:37:45.787Z,977.3
2018-03-31T10:38:46.483Z,977.3
2018-03-31T10:39:47.145Z,977.3
2018-03-31T10:40:47.851Z,977.2
2018-03-31T10:41:48.509Z,977.3
2018-03-31T10:42:49.169Z,977.3
2018-03-31T10:43:49.827Z,977.3
2018-03-31T10:44:50.484Z,977.3
2018-03-31T10:45:51.147Z,977.3
2018-03-31T10:46:51.804Z,977.3
2018-03-31T10:47:52.462Z,977.3
2018-03-31T10:48:53.123Z,977.3
2018-03-31T10:49:53.784Z,977.3
2018-03-31T10:50:54.442Z,977.3
2018-03-31T10:51:55.101Z,977.3
2018-03-31T10:52:55.759Z,977.3
2018-03-31T10:53:56.417Z,977.3
2018-03-31T10:54:57.075Z,977.3
2018-03-31T10:55:57.733Z,977.3
2018-03-31T10:56:58.394Z,977.3
2018-03-31T10:57:59.053Z,977.3
2018-03-31T10:58:59.710Z,977.3
2018-03-31T11:00:00.369Z,977.3
2018-03-31T11:01:01.027Z,977.3
2018-03-31T11:02:01.685Z,977.3
2018-03-31T11:03:02.383Z,977.2
2018-03-31T11:04:03.042Z,977.3
2018-03-31T11:05:03.701Z,977.3
2018-03-31T11:06:04.360Z,977.2
2018-03-31T11:07:05.017Z,977.2
2018-03-31T11:08:05.676Z,977.2
2018-03-31T11:09:06.335Z,977.2
2018-03-31T11:10:06.995Z,977.2
2018-03-31T11:11:07.656Z,977.2
2018-03-31T11:12:08.319Z,977.2
2018-03-31T11:13:08.976Z,977.3
2018-03-31T11:14:09.630Z,977.3
2018-03-31T11:15:10.289Z,977.3
2018-03-31T11:16:10.948Z,977.2
2018-03-31T11:17:11.606Z,977.2
2018-03-31T11:18:12.266Z,977.2
2018-03-31T11:19:12.924Z,977.3
2018-03-31T11:20:13.582Z,977.2
2018-03-31T11:21:14.240Z,977.2
2018-03-31T11:22:14.900Z,977.2
2018-03-31T11:23:15.559Z,977.2
2018-03-31T11:24:16.218Z,977.3
2018-03-31T11:25:16.878Z,977.3
2018-03-31T11:26:17.539Z,977.3
2018-03-31T11:27:18.198Z,977.2
2018-03-31T11:28:18.856Z,977.3
2018-03-31T11:29:19.517Z,977.3
2018-03-31T11:30:20.177Z,977.3
2018-03-31T11:31:20.838Z,977.2
2018-03-31T11:32:21.500Z,977.3
2018-03-31T11:33:22.158Z,977.3
2018-03-31T11:34:22.820Z,977.3
2018-03-31T11:35:23.481Z,977.3
2018-03-31T11:36:24.144Z,977.3
2018-03-31T11:37:24.836Z,977.3
2018-03-31T11:38:25.495Z,977.2
2018-03-31T11:39:26.159Z,977.2
2018-03-31T11:40:26.816Z,977.3
2018-03-31T11:41:27.479Z,977.3
2018-03-31T11:42:28.183Z,977.3
2018-03-31T11:43:28.828Z,977.3
2018-03-31T11:44:29.487Z,977.3
2018-03-31T11:45:30.150Z,977.4
2018-03-31T11:46:30.810Z,977.3
2018-03-31T11:47:31.470Z,977.3
2018-03-31T11:48:32.134Z,977.4
2018-03-31T11:49:32.829Z,977.4
2018-03-31T11:50:33.490Z,977.4
2018-03-31T11:51:34.150Z,977.4
2018-03-31T11:52:34.810Z,977.4
2018-03-31T11:53:35.469Z,977.3
2018-03-31T11:54:36.130Z,977.3
2018-03-31T11:55:36.791Z,977.3
2018-03-31T11:56:37.450Z,977.3
2018-03-31T11:57:38.109Z,977.4
2018-03-31T11:58:38.769Z,977.4
2018-03-31T11:59:39.427Z,977.4
2018-03-31T12:00:40.095Z,977.4
2018-03-31T12:01:40.746Z,977.5
2018-03-31T12:02:41.407Z,977.5
2018-03-31T12:03:42.063Z,977.5
2018-03-31T12:04:42.722Z,977.5
2018-03-31T12:05:43.380Z,977.5
2018-03-31T12:06:44.041Z,977.5
2018-03-31T12:07:44.736Z,977.5
2018-03-31T12:08:45.395Z,977.5
2018-03-31T12:09:46.053Z,977.5
2018-03-31T12:10:46.710Z,977.5
2018-03-31T12:11:47.369Z,977.5
2018-03-31T12:12:48.028Z,977.6
2018-03-31T12:13:48.685Z,977.5
2018-03-31T12:14:49.345Z,977.5
2018-03-31T12:15:50.005Z,977.5
2018-03-31T12:16:50.663Z,977.5
2018-03-31T12:17:51.321Z,977.5
2018-03-31T12:18:52.013Z,977.5
2018-03-31T12:19:52.640Z,977.4
2018-03-31T12:20:53.299Z,977.4
2018-03-31T12:21:53.959Z,977.4
2018-03-31T12:22:54.621Z,977.4
2018-03-31T12:23:55.283Z,977.4
2018-03-31T12:24:55.946Z,977.3
2018-03-31T12:25:56.601Z,977.4
2018-03-31T12:26:57.261Z,977.4
2018-03-31T12:27:57.921Z,977.4
2018-03-31T12:28:58.584Z,977.4
2018-03-31T12:29:59.241Z,977.4
2018-03-31T12:30:59.905Z,977.4
2018-03-31T12:32:00.604Z,977.4
2018-03-31T12:33:01.264Z,977.4
2018-03-31T12:34:01.925Z,977.4
2018-03-31T12:35:02.586Z,977.4
2018-03-31T12:36:03.249Z,977.4
2018-03-31T12:37:03.909Z,977.4
2018-03-31T12:38:04.574Z,977.4
2018-03-31T12:39:05.234Z,977.4
2018-03-31T12:40:05.892Z,977.3
2018-03-31T12:41:06.590Z,977.4
2018-03-31T12:42:07.250Z,977.4
2018-03-31T12:43:07.911Z,977.3
2018-03-31T12:44:08.572Z,977.3
2018-03-31T12:45:09.231Z,977.3
2018-03-31T12:46:09.895Z,977.3
2018-03-31T12:47:10.556Z,977.3
2018-03-31T12:48:11.219Z,977.3
2018-03-31T12:49:11.881Z,977.3
2018-03-31T12:50:12.580Z,977.3
2018-03-31T12:51:13.241Z,977.3
2018-03-31T12:52:13.962Z,977.3
2018-03-31T12:53:14.562Z,977.3
2018-03-31T12:54:15.225Z,977.3
2018-03-31T12:55:15.887Z,977.3
2018-03-31T12:56:16.551Z,977.3
2018-03-31T12:57:17.213Z,977.3
2018-03-31T12:58:17.875Z,977.3
2018-03-31T12:59:18.535Z,977.4
2018-03-31T13:00:19.194Z,977.4
2018-03-31T13:01:19.856Z,977.4